createdAt,value
2019-05-20T00:00:31.207Z,16.87
2019-05-20T00:01:36.766Z,16.52
2019-05-20T00:02:42.312Z,16.80
2019-05-20T00:03:47.860Z,16.80
2019-05-20T00:04:53.418Z,16.80
2019-05-20T00:05:59.006Z,16.85
2019-05-20T00:07:04.522Z,16.80
2019-05-20T00:08:10.072Z,16.77
2019-05-20T00:09:15.624Z,16.77
2019-05-20T00:10:21.181Z,16.85
2019-05-20T00:11:26.732Z,16.82
2019-05-20T00:12:32.278Z,16.85
2019-05-20T00:13:37.835Z,16.85
2019-05-20T00:14:43.389Z,16.85
2019-05-20T00:15:48.939Z,16.90
2019-05-20T00:16:54.496Z,16.90
2019-05-20T00:18:00.045Z,16.87
2019-05-20T00:19:05.594Z,16.87
2019-05-20T00:20:11.146Z,16.85
2019-05-20T00:21:16.703Z,16.73
2019-05-20T00:22:22.256Z,16.84
2019-05-20T00:23:27.802Z,16.90
2019-05-20T00:24:33.359Z,16.90
2019-05-20T00:25:38.914Z,16.97
2019-05-20T00:26:44.459Z,17.02
2019-05-20T00:27:50.013Z,16.99
2019-05-20T00:28:55.565Z,16.99
2019-05-20T00:30:01.116Z,16.95
2019-05-20T00:31:06.675Z,17.03
2019-05-20T00:32:12.227Z,17.05
2019-05-20T00:33:17.782Z,17.06
2019-05-20T00:34:34.738Z,16.82
2019-05-20T00:35:28.880Z,17.02
2019-05-20T00:36:34.442Z,17.05
2019-05-20T00:37:40.060Z,16.85
2019-05-20T00:38:45.537Z,17.06
2019-05-20T00:39:51.103Z,16.91
2019-05-20T00:40:56.642Z,16.91
2019-05-20T00:42:02.199Z,16.97
2019-05-20T00:43:07.746Z,16.87
2019-05-20T00:44:13.301Z,16.94
2019-05-20T00:45:18.850Z,16.92
2019-05-20T00:46:24.408Z,16.77
2019-05-20T00:47:29.986Z,16.59
2019-05-20T00:48:35.513Z,16.63
2019-05-20T00:49:41.059Z,16.70
2019-05-20T00:50:46.618Z,16.76
2019-05-20T00:51:52.178Z,16.88
2019-05-20T00:52:57.718Z,16.84
2019-05-20T00:54:03.273Z,16.84
2019-05-20T00:55:08.829Z,16.87
2019-05-20T00:56:23.083Z,16.85
2019-05-20T00:58:33.414Z,16.88
2019-05-20T00:59:38.623Z,16.77
2019-05-20T01:01:39.527Z,16.82
2019-05-20T01:02:57.063Z,16.72
2019-05-20T01:04:55.098Z,16.73
2019-05-20T01:06:00.620Z,16.85
2019-05-20T01:07:14.900Z,16.85
2019-05-20T01:09:16.187Z,16.84
2019-05-20T01:10:31.187Z,16.87
2019-05-20T01:12:40.294Z,16.82
2019-05-20T01:13:36.847Z,16.88
2019-05-20T01:14:42.389Z,16.73
2019-05-20T01:15:47.943Z,16.72
2019-05-20T01:16:53.493Z,16.80
2019-05-20T01:17:59.043Z,16.69
2019-05-20T01:19:04.594Z,16.73
2019-05-20T01:20:10.139Z,16.66
2019-05-20T01:21:15.727Z,16.65
2019-05-20T01:22:21.242Z,16.62
2019-05-20T01:23:26.797Z,16.59
2019-05-20T01:24:32.344Z,16.63
2019-05-20T01:25:37.900Z,16.63
2019-05-20T01:26:43.452Z,16.18
2019-05-20T01:27:49.001Z,16.42
2019-05-20T01:28:54.556Z,16.52
2019-05-20T01:30:00.109Z,16.58
2019-05-20T01:31:05.666Z,16.55
2019-05-20T01:32:11.200Z,16.70
2019-05-20T01:33:16.754Z,16.49
2019-05-20T01:34:22.306Z,16.47
2019-05-20T01:35:27.859Z,16.54
2019-05-20T01:36:33.415Z,16.42
2019-05-20T01:37:38.960Z,16.49
2019-05-20T01:38:44.509Z,16.42
2019-05-20T01:39:50.058Z,16.18
2019-05-20T01:40:55.610Z,16.36
2019-05-20T01:42:01.163Z,16.54
2019-05-20T01:43:06.718Z,16.59
2019-05-20T01:44:12.268Z,16.58
2019-05-20T01:45:17.813Z,16.51
2019-05-20T01:46:23.365Z,16.54
2019-05-20T01:47:28.920Z,16.62
2019-05-20T01:48:34.467Z,16.55
2019-05-20T01:49:40.023Z,16.58
2019-05-20T01:50:45.577Z,16.65
2019-05-20T01:51:51.123Z,16.72
2019-05-20T01:52:56.677Z,16.66
2019-05-20T01:54:02.226Z,16.66
2019-05-20T01:55:07.785Z,16.70
2019-05-20T01:56:13.332Z,16.62
2019-05-20T01:57:18.884Z,16.70
2019-05-20T01:58:24.441Z,16.59
2019-05-20T01:59:29.992Z,16.55
2019-05-20T02:00:35.544Z,16.59
2019-05-20T02:01:41.098Z,16.59
2019-05-20T02:02:46.649Z,16.66
2019-05-20T02:03:52.201Z,16.65
2019-05-20T02:04:57.750Z,16.54
2019-05-20T02:06:03.303Z,16.57
2019-05-20T02:07:08.856Z,16.67
2019-05-20T02:08:14.407Z,16.55
2019-05-20T02:09:19.966Z,16.62
2019-05-20T02:10:25.514Z,16.66
2019-05-20T02:11:31.058Z,16.63
2019-05-20T02:12:36.612Z,16.67
2019-05-20T02:13:42.167Z,16.67
2019-05-20T02:14:47.714Z,16.65
2019-05-20T02:15:53.267Z,16.66
2019-05-20T02:17:02.117Z,16.63
2019-05-20T02:18:04.375Z,16.69
2019-05-20T02:19:09.939Z,16.62
2019-05-20T02:20:15.474Z,16.66
2019-05-20T02:21:21.031Z,16.66
2019-05-20T02:22:26.580Z,16.59
2019-05-20T03:01:54.934Z,14.71
2019-05-20T03:03:00.323Z,14.77
2019-05-20T03:04:12.150Z,14.52
2019-05-20T03:05:11.548Z,14.42
2019-05-20T03:06:16.984Z,14.63
2019-05-20T03:07:22.443Z,14.67
2019-05-20T03:08:27.991Z,14.71
2019-05-20T03:09:33.537Z,14.69
2019-05-20T03:10:39.085Z,14.94
2019-05-20T03:11:44.625Z,14.83
2019-05-20T03:12:50.171Z,14.86
2019-05-20T03:13:55.718Z,14.90
2019-05-20T03:15:01.260Z,15.10
2019-05-20T03:16:06.806Z,15.22
2019-05-20T03:17:12.363Z,15.20
2019-05-20T03:18:17.907Z,15.30
2019-05-20T03:19:23.460Z,15.26
2019-05-20T03:20:29.001Z,15.41
2019-05-20T03:21:34.550Z,15.45
2019-05-20T03:22:40.108Z,15.45
2019-05-20T03:23:45.653Z,15.58
2019-05-20T03:24:51.201Z,15.70
2019-05-20T03:25:56.762Z,15.65
2019-05-20T03:27:02.302Z,15.77
2019-05-20T03:28:07.851Z,15.75
2019-05-20T03:29:13.402Z,15.78
2019-05-20T03:30:18.957Z,15.84
2019-05-20T03:31:24.496Z,15.86
2019-05-20T03:32:30.046Z,15.93
2019-05-20T03:33:35.610Z,15.91
2019-05-20T03:34:48.629Z,16.07
2019-05-20T03:35:46.709Z,16.04
2019-05-20T03:36:52.249Z,16.00
2019-05-20T03:37:57.803Z,15.91
2019-05-20T03:39:03.363Z,16.10
2019-05-20T03:40:08.901Z,16.02
2019-05-20T03:41:14.453Z,16.06
2019-05-20T03:42:20.004Z,16.11
2019-05-20T03:43:25.550Z,16.11
2019-05-20T03:44:31.116Z,16.14
2019-05-20T03:45:36.659Z,16.21
2019-05-20T03:46:42.201Z,16.16
2019-05-20T03:47:47.752Z,16.21
2019-05-20T03:48:53.310Z,16.26
2019-05-20T03:49:58.862Z,16.16
2019-05-20T03:51:04.406Z,16.14
2019-05-20T03:52:09.963Z,16.18
2019-05-20T03:53:15.510Z,16.18
2019-05-20T03:54:21.066Z,16.25
2019-05-20T03:55:26.620Z,16.25
2019-05-20T03:56:32.223Z,16.34
2019-05-20T03:57:37.732Z,16.25
2019-05-20T03:58:43.271Z,16.27
2019-05-20T03:59:48.819Z,16.30
2019-05-20T04:00:54.377Z,16.29
2019-05-20T04:01:59.922Z,16.16
2019-05-20T04:03:05.492Z,16.21
2019-05-20T04:04:11.026Z,16.13
2019-05-20T04:05:16.581Z,16.13
2019-05-20T04:06:22.175Z,16.10
2019-05-20T04:07:27.687Z,16.16
2019-05-20T04:08:33.237Z,16.18
2019-05-20T04:09:38.785Z,16.21
2019-05-20T04:10:44.361Z,16.13
2019-05-20T04:11:49.892Z,16.08
2019-05-20T04:12:55.438Z,16.14
2019-05-20T04:14:00.996Z,16.14
2019-05-20T04:15:06.549Z,16.13
2019-05-20T04:16:12.099Z,16.17
2019-05-20T04:17:17.644Z,16.07
2019-05-20T04:18:23.199Z,16.10
2019-05-20T04:19:28.754Z,16.13
2019-05-20T04:20:34.304Z,16.22
2019-05-20T04:21:39.855Z,16.27
2019-05-20T04:22:45.406Z,16.13
2019-05-20T04:23:50.957Z,16.07
2019-05-20T04:24:56.516Z,16.07
2019-05-20T04:26:02.055Z,16.00
2019-05-20T04:27:07.607Z,16.13
2019-05-20T04:28:13.176Z,15.93
2019-05-20T04:29:18.726Z,16.07
2019-05-20T04:30:24.264Z,16.14
2019-05-20T04:31:29.814Z,16.11
2019-05-20T04:32:35.369Z,16.11
2019-05-20T04:33:40.916Z,16.08
2019-05-20T04:34:46.473Z,16.10
2019-05-20T04:35:52.025Z,16.17
2019-05-20T04:36:57.577Z,16.18
2019-05-20T04:38:03.122Z,16.30
2019-05-20T04:39:08.691Z,16.26
2019-05-20T04:40:14.251Z,16.22
2019-05-20T04:41:19.784Z,16.27
2019-05-20T04:42:25.356Z,16.13
2019-05-20T04:43:30.879Z,16.10
2019-05-20T04:44:36.442Z,16.29
2019-05-20T04:45:42.114Z,16.21
2019-05-20T04:46:47.544Z,16.26
2019-05-20T04:47:53.102Z,16.25
2019-05-20T04:48:58.642Z,16.39
2019-05-20T04:50:04.201Z,16.36
2019-05-20T04:51:09.749Z,16.39
2019-05-20T04:52:15.299Z,16.33
2019-05-20T04:53:20.850Z,16.44
2019-05-20T04:54:26.396Z,16.40
2019-05-20T04:55:31.947Z,16.42
2019-05-20T04:56:37.501Z,16.55
2019-05-20T04:57:43.066Z,16.48
2019-05-20T04:58:48.601Z,16.49
2019-05-20T04:59:54.159Z,16.48
2019-05-20T05:00:59.730Z,16.37
2019-05-20T05:02:05.263Z,16.45
2019-05-20T05:03:10.815Z,16.47
2019-05-20T05:04:16.363Z,16.58
2019-05-20T05:05:36.780Z,16.58
2019-05-20T05:06:27.464Z,16.54
2019-05-20T05:07:33.039Z,16.59
2019-05-20T05:08:38.571Z,16.65
2019-05-20T05:09:44.122Z,16.59
2019-05-20T05:10:49.673Z,16.55
2019-05-20T05:11:55.225Z,16.58
2019-05-20T05:13:00.787Z,16.65
2019-05-20T05:14:06.330Z,16.63
2019-05-20T05:15:11.876Z,16.65
2019-05-20T05:16:17.428Z,16.70
2019-05-20T05:17:22.980Z,16.65
2019-05-20T05:18:28.538Z,16.87
2019-05-20T05:19:34.089Z,16.88
2019-05-20T05:20:39.637Z,17.00
2019-05-20T05:21:45.191Z,17.05
2019-05-20T05:22:50.744Z,17.09
2019-05-20T05:23:59.149Z,17.12
2019-05-20T05:25:01.847Z,17.06
2019-05-20T05:26:07.396Z,16.81
2019-05-20T05:27:12.947Z,16.94
2019-05-20T05:28:18.505Z,16.94
2019-05-20T05:29:24.051Z,16.94
2019-05-20T05:30:29.793Z,16.97
2019-05-20T05:31:35.160Z,16.97
2019-05-20T05:32:40.711Z,16.87
2019-05-20T05:33:46.265Z,17.02
2019-05-20T05:34:51.905Z,17.05
2019-05-20T05:35:57.367Z,17.09
2019-05-20T05:37:02.925Z,17.10
2019-05-20T05:38:08.741Z,17.09
2019-05-20T05:39:14.021Z,17.18
2019-05-20T05:40:19.579Z,17.15
2019-05-20T05:41:25.127Z,17.28
2019-05-20T05:42:30.676Z,17.32
2019-05-20T05:43:36.229Z,17.47
2019-05-20T05:44:41.786Z,17.45
2019-05-20T05:45:47.332Z,17.47
2019-05-20T05:46:52.885Z,17.43
2019-05-20T05:47:58.437Z,17.46
2019-05-20T05:49:03.994Z,17.57
2019-05-20T05:50:09.542Z,17.46
2019-05-20T05:51:15.094Z,17.58
2019-05-20T05:52:22.890Z,17.47
2019-05-20T05:53:26.204Z,17.49
2019-05-20T05:54:31.756Z,17.43
2019-05-20T05:55:37.303Z,17.47
2019-05-20T05:56:42.856Z,17.43
2019-05-20T05:57:48.417Z,17.45
2019-05-20T05:58:53.965Z,17.43
2019-05-20T05:59:59.513Z,17.50
2019-05-20T06:01:05.070Z,17.47
2019-05-20T06:02:10.617Z,17.40
2019-05-20T06:03:16.177Z,17.45
2019-05-20T06:04:21.726Z,17.50
2019-05-20T06:05:27.290Z,17.54
2019-05-20T06:06:32.834Z,17.39
2019-05-20T06:07:38.390Z,17.49
2019-05-20T06:08:43.935Z,17.49
2019-05-20T06:09:49.484Z,17.45
2019-05-20T06:10:55.038Z,17.47
2019-05-20T06:12:00.596Z,17.47
2019-05-20T06:13:06.159Z,17.40
2019-05-20T06:14:11.699Z,17.46
2019-05-20T06:15:17.246Z,17.43
2019-05-20T06:16:36.131Z,17.43
2019-05-20T06:17:28.356Z,17.46
2019-05-20T06:18:33.907Z,17.46
2019-05-20T06:19:39.457Z,17.42
2019-05-20T06:20:45.013Z,17.55
2019-05-20T06:21:50.563Z,17.63
2019-05-20T06:22:56.123Z,17.46
2019-05-20T06:24:01.672Z,17.45
2019-05-20T06:25:07.232Z,17.66
2019-05-20T06:26:12.820Z,17.71
2019-05-20T06:27:18.332Z,17.73
2019-05-20T06:28:23.923Z,17.42
2019-05-20T06:29:29.442Z,17.73
2019-05-20T06:30:34.982Z,17.80
2019-05-20T06:31:40.539Z,17.83
2019-05-20T06:32:46.130Z,17.81
2019-05-20T06:33:51.643Z,17.92
2019-05-20T06:34:57.196Z,18.01
2019-05-20T06:36:02.792Z,18.03
2019-05-20T06:37:08.303Z,18.08
2019-05-20T06:38:13.856Z,18.10
2019-05-20T06:39:19.411Z,18.03
2019-05-20T06:40:24.964Z,18.05
2019-05-20T06:41:30.510Z,18.14
2019-05-20T06:42:36.063Z,18.23
2019-05-20T06:43:41.628Z,18.19
2019-05-20T06:44:53.002Z,18.11
2019-05-20T06:45:52.730Z,18.16
2019-05-20T06:46:58.313Z,18.21
2019-05-20T06:48:03.854Z,18.16
2019-05-20T06:49:09.392Z,18.34
2019-05-20T06:50:14.940Z,18.31
2019-05-20T06:51:20.521Z,18.19
2019-05-20T06:52:35.258Z,18.26
2019-05-20T06:53:31.593Z,18.31
2019-05-20T06:54:37.155Z,18.42
2019-05-20T06:55:42.702Z,18.45
2019-05-20T06:56:48.574Z,18.34
2019-05-20T06:57:53.811Z,18.34
2019-05-20T06:58:59.370Z,18.44
2019-05-20T07:00:04.940Z,18.31
2019-05-20T07:01:10.470Z,18.38
2019-05-20T07:02:16.020Z,18.59
2019-05-20T07:03:21.582Z,18.51
2019-05-20T07:04:27.128Z,18.66
2019-05-20T07:05:32.681Z,18.72
2019-05-20T07:06:46.931Z,18.61
2019-05-20T07:07:43.781Z,18.72
2019-05-20T07:08:49.339Z,18.86
2019-05-20T07:09:54.900Z,18.75
2019-05-20T07:11:00.450Z,18.84
2019-05-20T07:12:05.996Z,18.63
2019-05-20T07:13:11.553Z,18.78
2019-05-20T07:14:17.104Z,18.91
2019-05-20T07:15:22.658Z,18.90
2019-05-20T07:16:28.216Z,18.91
2019-05-20T07:17:33.774Z,18.96
2019-05-20T07:18:39.317Z,18.91
2019-05-20T07:19:44.872Z,18.90
2019-05-20T07:20:50.434Z,18.96
2019-05-20T07:21:55.983Z,18.94
2019-05-20T07:23:01.614Z,18.81
2019-05-20T07:24:07.083Z,18.72
2019-05-20T07:25:12.656Z,18.78
2019-05-20T07:26:18.190Z,18.82
2019-05-20T07:27:23.747Z,18.82
2019-05-20T07:28:29.315Z,18.93
2019-05-20T07:29:34.868Z,18.93
2019-05-20T07:30:40.416Z,18.96
2019-05-20T07:31:45.967Z,18.90
2019-05-20T07:32:51.525Z,19.02
2019-05-20T07:33:57.072Z,19.16
2019-05-20T07:35:02.629Z,19.25
2019-05-20T07:36:10.137Z,19.25
2019-05-20T07:37:13.735Z,19.24
2019-05-20T07:38:19.377Z,19.25
2019-05-20T07:39:24.845Z,19.40
2019-05-20T07:40:30.469Z,19.37
2019-05-20T07:41:35.949Z,19.40
2019-05-20T07:42:41.511Z,19.40
2019-05-20T07:43:47.057Z,19.50
2019-05-20T07:44:52.610Z,19.65
2019-05-20T07:45:58.165Z,19.71
2019-05-20T07:47:03.722Z,19.60
2019-05-20T07:48:09.273Z,19.63
2019-05-20T07:49:14.871Z,19.83
2019-05-20T07:50:20.386Z,19.80
2019-05-20T07:51:25.931Z,19.98
2019-05-20T07:52:31.545Z,19.90
2019-05-20T07:53:37.078Z,19.98
2019-05-20T07:54:42.593Z,20.20
2019-05-20T07:55:48.154Z,20.25
2019-05-20T07:56:53.711Z,20.25
2019-05-20T07:57:59.255Z,20.41
2019-05-20T07:59:04.810Z,20.51
2019-05-20T08:00:10.375Z,20.58
2019-05-20T08:01:15.924Z,20.67
2019-05-20T08:02:21.481Z,20.60
2019-05-20T08:03:27.029Z,20.60
2019-05-20T08:04:32.686Z,20.46
2019-05-20T08:05:38.139Z,20.41
2019-05-20T08:06:43.708Z,20.60
2019-05-20T08:07:52.412Z,20.57
2019-05-20T08:08:54.806Z,20.41
2019-05-20T08:10:00.521Z,20.23
2019-05-20T08:11:05.915Z,20.35
2019-05-20T08:12:11.472Z,20.54
2019-05-20T08:13:17.020Z,20.48
2019-05-20T08:14:22.580Z,20.63
2019-05-20T08:15:28.143Z,20.78
2019-05-20T08:16:33.692Z,20.86
2019-05-20T08:17:39.494Z,20.90
2019-05-20T08:18:44.820Z,20.91
2019-05-20T08:19:50.353Z,21.01
2019-05-20T08:20:55.914Z,21.08
2019-05-20T08:22:01.474Z,20.88
2019-05-20T08:23:07.024Z,20.97
2019-05-20T08:24:12.575Z,21.03
2019-05-20T08:25:18.132Z,20.93
2019-05-20T08:26:23.709Z,20.74
2019-05-20T08:27:29.242Z,20.71
2019-05-20T08:28:34.800Z,20.60
2019-05-20T08:29:40.349Z,20.64
2019-05-20T08:30:45.908Z,20.68
2019-05-20T08:31:51.467Z,20.82
2019-05-20T08:32:57.024Z,20.93
2019-05-20T08:34:02.570Z,21.11
2019-05-20T08:35:08.131Z,21.03
2019-05-20T08:36:13.695Z,21.18
2019-05-20T08:37:19.239Z,21.34
2019-05-20T08:38:24.800Z,21.43
2019-05-20T08:39:30.348Z,21.52
2019-05-20T08:40:35.907Z,21.41
2019-05-20T08:41:41.468Z,21.37
2019-05-20T08:42:47.040Z,21.52
2019-05-20T08:43:52.579Z,21.67
2019-05-20T08:44:58.192Z,21.85
2019-05-20T08:46:03.689Z,21.83
2019-05-20T08:47:09.243Z,21.92
2019-05-20T08:48:14.792Z,21.94
2019-05-20T08:49:20.371Z,22.11
2019-05-20T08:50:25.907Z,22.15
2019-05-20T08:51:31.462Z,21.99
2019-05-20T08:52:37.018Z,22.02
2019-05-20T08:53:42.576Z,21.82
2019-05-20T08:54:48.135Z,21.80
2019-05-20T08:55:53.696Z,21.93
2019-05-20T08:56:59.242Z,22.04
2019-05-20T08:58:04.799Z,22.08
2019-05-20T08:59:10.414Z,21.93
2019-05-20T09:00:15.926Z,21.71
2019-05-20T09:01:21.470Z,21.58
2019-05-20T09:02:27.028Z,21.56
2019-05-20T09:03:32.585Z,21.55
2019-05-20T09:04:38.163Z,21.61
2019-05-20T09:05:43.694Z,21.59
2019-05-20T09:06:49.292Z,21.49
2019-05-20T09:08:03.057Z,21.48
2019-05-20T09:09:00.367Z,21.51
2019-05-20T09:10:05.923Z,21.36
2019-05-20T09:11:11.479Z,21.41
2019-05-20T09:12:17.036Z,21.52
2019-05-20T09:13:22.589Z,21.48
2019-05-20T09:14:28.198Z,21.68
2019-05-20T09:15:33.704Z,21.73
2019-05-20T09:16:39.257Z,21.51
2019-05-20T09:17:44.827Z,21.49
2019-05-20T09:18:50.397Z,21.56
2019-05-20T09:19:55.936Z,21.56
2019-05-20T09:21:01.484Z,21.52
2019-05-20T09:22:07.060Z,21.52
2019-05-20T09:23:12.603Z,21.43
2019-05-20T09:24:19.116Z,21.36
2019-05-20T09:25:23.715Z,21.43
2019-05-20T09:26:29.268Z,21.45
2019-05-20T09:27:34.833Z,21.55
2019-05-20T09:28:40.381Z,21.64
2019-05-20T09:29:45.940Z,21.82
2019-05-20T09:30:51.501Z,21.92
2019-05-20T09:31:57.055Z,22.07
2019-05-20T09:33:02.619Z,21.94
2019-05-20T09:34:08.177Z,21.96
2019-05-20T09:35:13.722Z,21.80
2019-05-20T09:36:19.284Z,21.93
2019-05-20T09:37:24.841Z,21.93
2019-05-20T09:38:30.397Z,21.94
2019-05-20T09:39:35.953Z,21.92
2019-05-20T09:40:41.510Z,22.15
2019-05-20T09:41:47.067Z,22.15
2019-05-20T09:42:52.625Z,22.24
2019-05-20T09:43:58.186Z,22.22
2019-05-20T09:45:03.785Z,22.18
2019-05-20T09:46:09.297Z,22.04
2019-05-20T09:47:14.857Z,22.02
2019-05-20T09:48:20.410Z,22.22
2019-05-20T09:49:26.098Z,22.27
2019-05-20T09:50:31.521Z,22.16
2019-05-20T09:51:37.083Z,22.23
2019-05-20T09:52:42.643Z,22.29
2019-05-20T09:53:48.194Z,22.08
2019-05-20T09:54:53.770Z,22.18
2019-05-20T09:55:59.314Z,22.24
2019-05-20T09:57:04.888Z,22.18
2019-05-20T09:58:10.426Z,22.31
2019-05-20T09:59:16.547Z,22.36
2019-05-20T10:00:21.543Z,22.41
2019-05-20T10:01:27.096Z,22.38
2019-05-20T10:02:37.790Z,22.36
2019-05-20T10:03:38.210Z,22.44
2019-05-20T10:04:43.769Z,22.57
2019-05-20T10:05:49.326Z,22.71
2019-05-20T10:06:54.882Z,22.89
2019-05-20T10:08:00.434Z,23.12
2019-05-20T10:09:06.003Z,23.00
2019-05-20T10:10:11.554Z,23.12
2019-05-20T10:11:17.112Z,22.97
2019-05-20T10:12:22.669Z,22.92
2019-05-20T10:13:28.231Z,22.99
2019-05-20T10:14:33.779Z,22.88
2019-05-20T10:15:39.339Z,22.81
2019-05-20T10:16:44.896Z,22.85
2019-05-20T10:17:50.456Z,22.60
2019-05-20T10:18:56.070Z,22.76
2019-05-20T10:20:01.575Z,23.01
2019-05-20T10:21:07.132Z,22.92
2019-05-20T10:22:12.688Z,22.97
2019-05-20T10:23:18.249Z,23.14
2019-05-20T10:24:23.800Z,22.99
2019-05-20T10:25:29.456Z,23.04
2019-05-20T10:26:34.926Z,23.01
2019-05-20T10:27:40.473Z,23.04
2019-05-20T10:28:47.415Z,22.92
2019-05-20T10:29:51.590Z,23.12
2019-05-20T10:30:57.155Z,23.03
2019-05-20T10:32:02.711Z,23.01
2019-05-20T10:33:10.513Z,23.06
2019-05-20T10:34:13.826Z,23.01
2019-05-20T10:35:19.386Z,23.16
2019-05-20T10:36:25.085Z,23.22
2019-05-20T10:37:30.506Z,23.21
2019-05-20T10:38:36.063Z,23.18
2019-05-20T10:39:41.613Z,23.35
2019-05-20T10:40:47.179Z,23.47
2019-05-20T10:41:52.728Z,23.47
2019-05-20T10:42:58.289Z,23.44
2019-05-20T10:44:03.858Z,23.40
2019-05-20T10:45:09.407Z,23.32
2019-05-20T10:46:14.966Z,23.53
2019-05-20T10:47:20.525Z,23.28
2019-05-20T10:48:26.083Z,23.18
2019-05-20T10:49:31.642Z,22.94
2019-05-20T10:50:37.201Z,22.92
2019-05-20T10:51:42.755Z,22.92
2019-05-20T10:52:48.318Z,22.96
2019-05-20T10:53:53.876Z,22.97
2019-05-20T10:54:59.431Z,23.03
2019-05-20T10:56:04.991Z,23.06
2019-05-20T10:57:10.546Z,23.21
2019-05-20T10:58:16.109Z,23.19
2019-05-20T10:59:21.678Z,23.15
2019-05-20T11:00:27.235Z,22.94
2019-05-20T11:01:32.787Z,22.97
2019-05-20T11:02:38.376Z,22.88
2019-05-20T11:03:43.916Z,23.04
2019-05-20T11:04:49.458Z,23.03
2019-05-20T11:05:55.035Z,23.01
2019-05-20T11:07:00.576Z,23.12
2019-05-20T11:08:06.154Z,23.22
2019-05-20T11:09:14.371Z,23.21
2019-05-20T11:10:17.319Z,23.19
2019-05-20T11:11:22.984Z,23.18
2019-05-20T11:12:28.403Z,23.22
2019-05-20T11:13:33.927Z,23.09
2019-05-20T11:14:39.583Z,23.37
2019-05-20T11:15:45.038Z,23.29
2019-05-20T11:16:50.600Z,23.35
2019-05-20T11:17:56.213Z,23.50
2019-05-20T11:19:01.748Z,23.32
2019-05-20T11:20:07.278Z,23.28
2019-05-20T11:21:12.835Z,23.34
2019-05-20T11:22:18.390Z,23.41
2019-05-20T11:23:23.982Z,23.56
2019-05-20T11:24:29.512Z,23.63
2019-05-20T11:25:35.071Z,23.53
2019-05-20T11:26:40.625Z,23.63
2019-05-20T11:27:46.186Z,23.72
2019-05-20T11:28:51.741Z,23.64
2019-05-20T11:29:57.308Z,23.56
2019-05-20T11:31:02.884Z,23.66
2019-05-20T11:32:08.419Z,23.63
2019-05-20T11:33:22.822Z,23.74
2019-05-20T11:35:25.140Z,23.52
2019-05-20T11:36:39.640Z,23.64
2019-05-20T11:38:49.695Z,23.57
2019-05-20T11:39:54.955Z,23.64
2019-05-20T11:41:56.442Z,23.79
2019-05-20T11:43:01.890Z,23.64
2019-05-20T11:44:07.518Z,23.64
2019-05-20T11:45:13.539Z,23.62
2019-05-20T11:46:27.294Z,23.78
2019-05-20T11:48:28.760Z,23.72
2019-05-20T11:49:34.176Z,23.53
2019-05-20T11:50:39.693Z,23.47
2019-05-20T11:51:45.255Z,23.50
2019-05-20T11:52:50.813Z,23.56
2019-05-20T11:53:56.357Z,23.59
2019-05-20T11:55:01.924Z,23.47
2019-05-20T11:56:07.485Z,23.48
2019-05-20T11:57:13.121Z,23.53
2019-05-20T11:58:18.600Z,23.47
2019-05-20T11:59:24.152Z,23.45
2019-05-20T12:00:29.713Z,23.48
2019-05-20T12:01:35.262Z,23.53
2019-05-20T12:02:40.827Z,23.56
2019-05-20T12:03:46.377Z,23.72
2019-05-20T12:04:51.937Z,23.74
2019-05-20T12:05:57.510Z,23.81
2019-05-20T12:07:03.058Z,23.77
2019-05-20T12:08:08.615Z,24.04
2019-05-20T12:09:14.171Z,24.09
2019-05-20T12:10:19.735Z,24.03
2019-05-20T12:11:25.330Z,24.03
2019-05-20T12:12:30.881Z,24.11
2019-05-20T12:13:36.403Z,24.11
2019-05-20T12:14:41.964Z,23.92
2019-05-20T12:15:47.517Z,23.87
2019-05-20T12:16:53.073Z,23.75
2019-05-20T12:17:58.630Z,23.67
2019-05-20T12:19:04.188Z,23.62
2019-05-20T12:20:11.918Z,23.79
2019-05-20T12:21:15.421Z,23.82
2019-05-20T12:22:20.869Z,23.77
2019-05-20T12:23:26.428Z,23.82
2019-05-20T12:24:31.980Z,23.92
2019-05-20T12:25:37.539Z,24.03
2019-05-20T12:26:43.131Z,23.92
2019-05-20T12:27:48.660Z,23.72
2019-05-20T12:28:54.238Z,23.72
2019-05-20T12:29:59.775Z,23.71
2019-05-20T12:31:05.335Z,23.67
2019-05-20T12:32:10.896Z,23.53
2019-05-20T12:33:18.875Z,23.72
2019-05-20T12:34:22.012Z,23.71
2019-05-20T12:35:27.571Z,24.04
2019-05-20T12:36:33.215Z,23.94
2019-05-20T12:37:38.802Z,23.96
2019-05-20T12:38:44.255Z,24.04
2019-05-20T12:40:05.909Z,24.09
2019-05-20T12:40:55.366Z,24.04
2019-05-20T12:42:01.598Z,24.09
2019-05-20T12:43:06.549Z,23.93
2019-05-20T12:44:13.177Z,23.92
2019-05-20T12:45:17.613Z,23.89
2019-05-20T12:46:23.164Z,23.96
2019-05-20T12:47:28.722Z,24.08
2019-05-20T12:48:34.289Z,24.27
2019-05-20T12:49:39.838Z,24.24
2019-05-20T12:50:45.418Z,24.27
2019-05-20T12:51:50.964Z,24.33
2019-05-20T12:52:56.517Z,24.27
2019-05-20T12:54:02.076Z,24.17
2019-05-20T12:55:09.600Z,24.19
2019-05-20T12:56:13.579Z,24.33
2019-05-20T12:57:18.757Z,24.32
2019-05-20T12:58:24.339Z,24.40
2019-05-20T12:59:29.872Z,24.45
2019-05-20T13:00:35.437Z,24.63
2019-05-20T13:01:40.996Z,24.48
2019-05-20T13:02:46.657Z,24.39
2019-05-20T13:03:52.415Z,24.21
2019-05-20T13:04:57.668Z,24.39
2019-05-20T13:06:03.476Z,24.36
2019-05-20T13:07:08.829Z,24.30
2019-05-20T13:08:14.474Z,24.19
2019-05-20T13:09:19.932Z,24.12
2019-05-20T13:10:30.320Z,24.12
2019-05-20T13:11:31.120Z,24.34
2019-05-20T13:12:36.587Z,24.36
2019-05-20T13:13:42.217Z,24.33
2019-05-20T13:14:47.710Z,24.36
2019-05-20T13:15:53.986Z,24.36
2019-05-20T13:16:58.821Z,24.32
2019-05-20T13:18:04.387Z,24.26
2019-05-20T13:19:09.955Z,24.39
2019-05-20T13:20:15.506Z,24.37
2019-05-20T13:21:21.060Z,24.15
2019-05-20T13:22:26.622Z,24.22
2019-05-20T13:23:32.183Z,24.26
2019-05-20T13:24:37.742Z,24.21
2019-05-20T13:25:43.303Z,24.27
2019-05-20T13:26:48.855Z,24.39
2019-05-20T13:27:54.414Z,24.33
2019-05-20T13:29:00.034Z,24.42
2019-05-20T13:30:05.540Z,24.46
2019-05-20T13:31:11.105Z,24.37
2019-05-20T13:32:16.663Z,24.45
2019-05-20T13:33:22.217Z,24.39
2019-05-20T13:34:27.770Z,24.45
2019-05-20T13:35:33.379Z,24.51
2019-05-20T13:36:38.894Z,24.64
2019-05-20T13:37:44.450Z,24.59
2019-05-20T13:38:50.009Z,24.63
2019-05-20T13:39:55.576Z,24.58
2019-05-20T13:41:01.157Z,24.69
2019-05-20T13:42:06.692Z,24.63
2019-05-20T13:43:12.256Z,24.54
2019-05-20T13:44:17.823Z,24.42
2019-05-20T13:45:23.373Z,24.54
2019-05-20T13:46:28.930Z,24.45
2019-05-20T13:47:34.578Z,24.44
2019-05-20T13:48:40.046Z,24.34
2019-05-20T13:49:45.610Z,24.33
2019-05-20T13:50:51.164Z,24.39
2019-05-20T13:51:56.749Z,24.42
2019-05-20T13:53:02.340Z,24.33
2019-05-20T13:54:07.847Z,24.49
2019-05-20T13:55:13.419Z,24.36
2019-05-20T13:56:18.967Z,24.34
2019-05-20T13:57:24.528Z,24.42
2019-05-20T13:58:30.087Z,24.39
2019-05-20T13:59:35.642Z,24.34
2019-05-20T14:00:41.199Z,24.49
2019-05-20T14:01:46.851Z,24.37
2019-05-20T14:02:52.331Z,24.32
2019-05-20T14:03:57.886Z,24.19
2019-05-20T14:05:03.437Z,24.17
2019-05-20T14:06:09.004Z,24.09
2019-05-20T14:07:14.561Z,24.33
2019-05-20T14:08:20.119Z,24.30
2019-05-20T14:09:25.675Z,24.33
2019-05-20T14:10:31.239Z,24.39
2019-05-20T14:11:36.800Z,24.19
2019-05-20T14:12:42.367Z,24.33
2019-05-20T14:13:47.916Z,24.34
2019-05-20T14:14:53.472Z,24.36
2019-05-20T14:15:59.034Z,24.24
2019-05-20T14:17:04.595Z,24.36
2019-05-20T14:18:10.162Z,24.33
2019-05-20T14:19:15.714Z,24.42
2019-05-20T14:20:21.272Z,24.49
2019-05-20T14:21:26.836Z,24.44
2019-05-20T14:22:32.389Z,24.52
2019-05-20T14:23:37.953Z,24.58
2019-05-20T14:24:43.514Z,24.63
2019-05-20T14:25:49.075Z,24.63
2019-05-20T14:26:54.642Z,24.58
2019-05-20T14:28:00.191Z,24.59
2019-05-20T14:29:05.749Z,24.69
2019-05-20T14:30:11.322Z,24.75
2019-05-20T14:31:16.873Z,24.61
2019-05-20T14:32:22.434Z,24.77
2019-05-20T14:33:28.019Z,24.71
2019-05-20T14:34:33.543Z,24.78
2019-05-20T14:35:39.165Z,24.74
2019-05-20T14:36:44.893Z,24.70
2019-05-20T14:37:50.224Z,24.75
2019-05-20T14:38:55.789Z,24.69
2019-05-20T14:40:01.358Z,24.67
2019-05-20T14:41:20.396Z,24.78
2019-05-20T14:42:12.647Z,24.77
2019-05-20T14:43:18.030Z,24.86
2019-05-20T14:44:23.582Z,24.83
2019-05-20T14:45:29.256Z,24.82
2019-05-20T14:46:34.704Z,24.71
2019-05-20T14:47:40.260Z,24.85
2019-05-20T14:48:45.821Z,24.75
2019-05-20T14:49:51.466Z,24.80
2019-05-20T14:50:56.963Z,24.82
2019-05-20T14:52:02.504Z,24.80